Terminal Aerodrome Forecast
Issued by NWS

Home | Current Version | Previous Version | Text Only | Print | Product List | Glossary On
Versions: 1 2 3 4 5 6 7 8 9 10 11 12 13 14 15 16 17 18 19 20 21 22
000
FTUS41 KBGM 282300
TAFELM
TAF
KELM 282330Z 2900/2924 32009KT P6SM -SHRA OVC020
     FM290600 30007KT P6SM SCT250
      TEMPO 2906/2908 1SM BR OVC003
     FM290800 VRB02KT 1SM BR OVC003
      TEMPO 2912/2914 4SM BR SCT003 BKN250
     FM291400 31006KT P6SM BKN040=

USA.gov is the U.S. government's official web portal to all federal, state and local government web resources and services.